sensor_id;sensor_type;location;lat;lon;timestamp;P1;durP1;ratioP1;P2;durP2;ratioP2
10725;SDS011;5414;59.782;16.378;2023-09-19T00:02:01;9.77;;;6.77;;
10725;SDS011;5414;59.782;16.378;2023-09-19T00:04:30;9.57;;;6.80;;
10725;SDS011;5414;59.782;16.378;2023-09-19T00:06:57;10.33;;;7.17;;
10725;SDS011;5414;59.782;16.378;2023-09-19T00:09:24;9.77;;;7.37;;
10725;SDS011;5414;59.782;16.378;2023-09-19T00:11:53;9.90;;;7.53;;
10725;SDS011;5414;59.782;16.378;2023-09-19T00:14:19;13.43;;;8.50;;
10725;SDS011;5414;59.782;16.378;2023-09-19T00:16:49;10.20;;;7.63;;
10725;SDS011;5414;59.782;16.378;2023-09-19T00:19:15;12.43;;;8.30;;
10725;SDS011;5414;59.782;16.378;2023-09-19T00:21:41;11.43;;;7.97;;
10725;SDS011;5414;59.782;16.378;2023-09-19T00:24:08;10.00;;;7.87;;
10725;SDS011;5414;59.782;16.378;2023-09-19T00:26:34;10.43;;;8.90;;
10725;SDS011;5414;59.782;16.378;2023-09-19T00:29:01;8.83;;;7.80;;
10725;SDS011;5414;59.782;16.378;2023-09-19T00:31:28;9.53;;;8.53;;
10725;SDS011;5414;59.782;16.378;2023-09-19T00:33:55;11.50;;;9.30;;
10725;SDS011;5414;59.782;16.378;2023-09-19T00:36:24;10.80;;;8.83;;
10725;SDS011;5414;59.782;16.378;2023-09-19T00:38:50;11.63;;;8.70;;
10725;SDS011;5414;59.782;16.378;2023-09-19T00:41:17;15.07;;;9.60;;
10725;SDS011;5414;59.782;16.378;2023-09-19T00:43:43;15.07;;;10.10;;
10725;SDS011;5414;59.782;16.378;2023-09-19T00:46:09;11.13;;;9.73;;
10725;SDS011;5414;59.782;16.378;2023-09-19T00:48:38;12.53;;;9.83;;
10725;SDS011;5414;59.782;16.378;2023-09-19T00:51:08;14.43;;;10.33;;
10725;SDS011;5414;59.782;16.378;2023-09-19T00:53:35;14.00;;;9.90;;
10725;SDS011;5414;59.782;16.378;2023-09-19T00:56:02;13.53;;;10.80;;
10725;SDS011;5414;59.782;16.378;2023-09-19T00:58:32;11.50;;;10.00;;
10725;SDS011;5414;59.782;16.378;2023-09-19T01:01:00;12.03;;;10.83;;
10725;SDS011;5414;59.782;16.378;2023-09-19T01:03:27;12.47;;;10.17;;
10725;SDS011;5414;59.782;16.378;2023-09-19T01:05:53;12.33;;;10.47;;
10725;SDS011;5414;59.782;16.378;2023-09-19T01:08:19;12.03;;;10.53;;
10725;SDS011;5414;59.782;16.378;2023-09-19T01:10:51;13.43;;;11.50;;
10725;SDS011;5414;59.782;16.378;2023-09-19T01:13:25;17.33;;;11.80;;
10725;SDS011;5414;59.782;16.378;2023-09-19T01:18:47;13.57;;;12.17;;
10725;SDS011;5414;59.782;16.378;2023-09-19T01:29:26;14.30;;;12.77;;
10725;SDS011;5414;59.782;16.378;2023-09-19T01:32:01;14.83;;;13.20;;
10725;SDS011;5414;59.782;16.378;2023-09-19T01:37:14;18.60;;;14.37;;
10725;SDS011;5414;59.782;16.378;2023-09-19T01:39:49;16.73;;;14.33;;
10725;SDS011;5414;59.782;16.378;2023-09-19T01:42:18;16.67;;;14.30;;
10725;SDS011;5414;59.782;16.378;2023-09-19T01:47:24;17.67;;;14.57;;
10725;SDS011;5414;59.782;16.378;2023-09-19T01:49:57;18.17;;;15.70;;
10725;SDS011;5414;59.782;16.378;2023-09-19T01:52:27;19.07;;;15.23;;
10725;SDS011;5414;59.782;16.378;2023-09-19T01:54:56;18.07;;;16.17;;
10725;SDS011;5414;59.782;16.378;2023-09-19T01:57:26;19.53;;;16.43;;
10725;SDS011;5414;59.782;16.378;2023-09-19T01:59:57;17.87;;;15.87;;
10725;SDS011;5414;59.782;16.378;2023-09-19T02:02:25;19.07;;;17.00;;
10725;SDS011;5414;59.782;16.378;2023-09-19T02:04:51;19.93;;;16.80;;
10725;SDS011;5414;59.782;16.378;2023-09-19T02:07:17;20.03;;;17.07;;
10725;SDS011;5414;59.782;16.378;2023-09-19T02:09:43;20.00;;;17.50;;
10725;SDS011;5414;59.782;16.378;2023-09-19T02:12:09;19.80;;;17.67;;
10725;SDS011;5414;59.782;16.378;2023-09-19T02:14:36;20.47;;;17.83;;
10725;SDS011;5414;59.782;16.378;2023-09-19T02:17:02;20.93;;;18.60;;
10725;SDS011;5414;59.782;16.378;2023-09-19T02:19:32;19.30;;;17.30;;
10725;SDS011;5414;59.782;16.378;2023-09-19T02:21:59;20.00;;;17.33;;
10725;SDS011;5414;59.782;16.378;2023-09-19T02:24:25;19.73;;;17.73;;
10725;SDS011;5414;59.782;16.378;2023-09-19T02:26:52;21.37;;;18.30;;
10725;SDS011;5414;59.782;16.378;2023-09-19T02:29:19;18.80;;;16.90;;
10725;SDS011;5414;59.782;16.378;2023-09-19T02:31:47;18.23;;;16.43;;
10725;SDS011;5414;59.782;16.378;2023-09-19T02:34:13;17.07;;;15.47;;
10725;SDS011;5414;59.782;16.378;2023-09-19T02:36:41;19.50;;;17.40;;
10725;SDS011;5414;59.782;16.378;2023-09-19T02:39:09;17.23;;;15.43;;
10725;SDS011;5414;59.782;16.378;2023-09-19T02:41:36;17.87;;;16.07;;
10725;SDS011;5414;59.782;16.378;2023-09-19T02:44:02;16.57;;;14.90;;
10725;SDS011;5414;59.782;16.378;2023-09-19T02:46:32;15.63;;;14.00;;
10725;SDS011;5414;59.782;16.378;2023-09-19T02:48:59;15.63;;;13.73;;
10725;SDS011;5414;59.782;16.378;2023-09-19T02:51:26;14.40;;;12.67;;
10725;SDS011;5414;59.782;16.378;2023-09-19T02:53:52;12.33;;;11.23;;
10725;SDS011;5414;59.782;16.378;2023-09-19T02:56:19;11.53;;;10.53;;
10725;SDS011;5414;59.782;16.378;2023-09-19T02:58:45;12.20;;;10.97;;
10725;SDS011;5414;59.782;16.378;2023-09-19T03:01:13;10.30;;;9.33;;
10725;SDS011;5414;59.782;16.378;2023-09-19T03:03:41;11.70;;;9.77;;
10725;SDS011;5414;59.782;16.378;2023-09-19T03:06:07;10.73;;;9.73;;
10725;SDS011;5414;59.782;16.378;2023-09-19T03:08:38;10.07;;;9.17;;
10725;SDS011;5414;59.782;16.378;2023-09-19T03:11:05;8.93;;;8.20;;
10725;SDS011;5414;59.782;16.378;2023-09-19T03:13:31;8.57;;;7.87;;
10725;SDS011;5414;59.782;16.378;2023-09-19T03:15:58;8.17;;;7.47;;
10725;SDS011;5414;59.782;16.378;2023-09-19T03:18:24;8.60;;;7.80;;
10725;SDS011;5414;59.782;16.378;2023-09-19T03:20:55;8.00;;;7.27;;
10725;SDS011;5414;59.782;16.378;2023-09-19T03:23:22;8.60;;;7.80;;
10725;SDS011;5414;59.782;16.378;2023-09-19T03:25:48;8.73;;;8.00;;
10725;SDS011;5414;59.782;16.378;2023-09-19T03:28:14;9.60;;;8.80;;
10725;SDS011;5414;59.782;16.378;2023-09-19T03:30:41;10.43;;;9.33;;
10725;SDS011;5414;59.782;16.378;2023-09-19T03:33:07;9.73;;;8.83;;
10725;SDS011;5414;59.782;16.378;2023-09-19T03:35:33;9.70;;;8.90;;
10725;SDS011;5414;59.782;16.378;2023-09-19T03:37:59;10.70;;;9.70;;
10725;SDS011;5414;59.782;16.378;2023-09-19T03:40:26;10.80;;;9.80;;
10725;SDS011;5414;59.782;16.378;2023-09-19T03:42:51;12.23;;;11.03;;
10725;SDS011;5414;59.782;16.378;2023-09-19T03:45:17;12.53;;;11.40;;
10725;SDS011;5414;59.782;16.378;2023-09-19T03:47:44;12.97;;;11.77;;
10725;SDS011;5414;59.782;16.378;2023-09-19T03:50:12;12.43;;;11.37;;
10725;SDS011;5414;59.782;16.378;2023-09-19T03:52:42;11.97;;;10.87;;
10725;SDS011;5414;59.782;16.378;2023-09-19T03:55:08;12.73;;;11.43;;
10725;SDS011;5414;59.782;16.378;2023-09-19T03:57:35;11.63;;;10.63;;
10725;SDS011;5414;59.782;16.378;2023-09-19T04:00:01;12.77;;;11.63;;
10725;SDS011;5414;59.782;16.378;2023-09-19T04:02:27;13.30;;;12.10;;
10725;SDS011;5414;59.782;16.378;2023-09-19T04:04:58;14.43;;;13.00;;
10725;SDS011;5414;59.782;16.378;2023-09-19T04:07:24;14.30;;;12.90;;
10725;SDS011;5414;59.782;16.378;2023-09-19T04:09:53;13.40;;;12.20;;
10725;SDS011;5414;59.782;16.378;2023-09-19T04:12:21;12.70;;;11.40;;
10725;SDS011;5414;59.782;16.378;2023-09-19T04:14:47;12.70;;;11.50;;
10725;SDS011;5414;59.782;16.378;2023-09-19T04:17:15;13.03;;;11.83;;
10725;SDS011;5414;59.782;16.378;2023-09-19T04:19:41;13.03;;;11.83;;
10725;SDS011;5414;59.782;16.378;2023-09-19T04:22:07;13.33;;;12.13;;
10725;SDS011;5414;59.782;16.378;2023-09-19T04:24:34;13.60;;;12.50;;
10725;SDS011;5414;59.782;16.378;2023-09-19T04:27:00;14.87;;;13.47;;
10725;SDS011;5414;59.782;16.378;2023-09-19T04:29:26;17.33;;;14.83;;
10725;SDS011;5414;59.782;16.378;2023-09-19T04:31:54;18.57;;;16.53;;
10725;SDS011;5414;59.782;16.378;2023-09-19T04:34:22;19.53;;;17.43;;
10725;SDS011;5414;59.782;16.378;2023-09-19T04:36:49;22.07;;;19.70;;
10725;SDS011;5414;59.782;16.378;2023-09-19T04:39:15;27.03;;;23.70;;
10725;SDS011;5414;59.782;16.378;2023-09-19T04:41:42;27.63;;;23.83;;
10725;SDS011;5414;59.782;16.378;2023-09-19T04:44:09;30.23;;;24.63;;
10725;SDS011;5414;59.782;16.378;2023-09-19T04:46:35;27.70;;;24.67;;
10725;SDS011;5414;59.782;16.378;2023-09-19T04:49:01;31.20;;;25.80;;
10725;SDS011;5414;59.782;16.378;2023-09-19T04:51:29;38.10;;;30.73;;
10725;SDS011;5414;59.782;16.378;2023-09-19T04:53:59;36.67;;;30.00;;
10725;SDS011;5414;59.782;16.378;2023-09-19T04:56:25;40.47;;;30.90;;
10725;SDS011;5414;59.782;16.378;2023-09-19T04:58:53;41.37;;;31.00;;
10725;SDS011;5414;59.782;16.378;2023-09-19T05:01:19;50.43;;;34.83;;
10725;SDS011;5414;59.782;16.378;2023-09-19T05:03:48;43.70;;;32.90;;
10725;SDS011;5414;59.782;16.378;2023-09-19T05:06:18;48.67;;;34.90;;
10725;SDS011;5414;59.782;16.378;2023-09-19T05:08:46;46.17;;;35.23;;
10725;SDS011;5414;59.782;16.378;2023-09-19T05:11:16;51.77;;;37.47;;
10725;SDS011;5414;59.782;16.378;2023-09-19T05:13:41;51.80;;;37.87;;
10725;SDS011;5414;59.782;16.378;2023-09-19T05:16:08;54.63;;;38.33;;
10725;SDS011;5414;59.782;16.378;2023-09-19T05:18:35;59.17;;;39.80;;
10725;SDS011;5414;59.782;16.378;2023-09-19T05:21:04;60.07;;;39.70;;
10725;SDS011;5414;59.782;16.378;2023-09-19T05:23:30;54.30;;;38.30;;
10725;SDS011;5414;59.782;16.378;2023-09-19T05:25:56;56.50;;;40.10;;
10725;SDS011;5414;59.782;16.378;2023-09-19T05:28:25;59.30;;;39.67;;
10725;SDS011;5414;59.782;16.378;2023-09-19T05:30:51;59.73;;;40.10;;
10725;SDS011;5414;59.782;16.378;2023-09-19T05:33:18;58.13;;;41.37;;
10725;SDS011;5414;59.782;16.378;2023-09-19T05:35:44;59.97;;;41.97;;
10725;SDS011;5414;59.782;16.378;2023-09-19T05:38:11;56.83;;;40.23;;
10725;SDS011;5414;59.782;16.378;2023-09-19T05:40:38;60.80;;;41.47;;
10725;SDS011;5414;59.782;16.378;2023-09-19T05:43:07;71.50;;;42.60;;
10725;SDS011;5414;59.782;16.378;2023-09-19T05:45:33;55.23;;;40.13;;
10725;SDS011;5414;59.782;16.378;2023-09-19T05:48:09;62.47;;;41.30;;
10725;SDS011;5414;59.782;16.378;2023-09-19T05:50:36;59.10;;;41.27;;
10725;SDS011;5414;59.782;16.378;2023-09-19T05:53:03;60.70;;;40.57;;
10725;SDS011;5414;59.782;16.378;2023-09-19T05:55:29;60.40;;;41.07;;
10725;SDS011;5414;59.782;16.378;2023-09-19T05:57:56;61.90;;;40.57;;
10725;SDS011;5414;59.782;16.378;2023-09-19T06:00:23;63.47;;;40.33;;
10725;SDS011;5414;59.782;16.378;2023-09-19T06:02:56;59.10;;;41.40;;
10725;SDS011;5414;59.782;16.378;2023-09-19T06:05:23;60.20;;;41.43;;
10725;SDS011;5414;59.782;16.378;2023-09-19T06:07:51;55.67;;;39.83;;
10725;SDS011;5414;59.782;16.378;2023-09-19T06:10:18;53.37;;;38.47;;
10725;SDS011;5414;59.782;16.378;2023-09-19T06:12:45;53.67;;;38.13;;
10725;SDS011;5414;59.782;16.378;2023-09-19T06:15:13;51.63;;;37.43;;
10725;SDS011;5414;59.782;16.378;2023-09-19T06:17:50;51.17;;;37.17;;
10725;SDS011;5414;59.782;16.378;2023-09-19T06:20:16;49.37;;;36.97;;
10725;SDS011;5414;59.782;16.378;2023-09-19T06:22:44;49.03;;;38.10;;
10725;SDS011;5414;59.782;16.378;2023-09-19T06:25:11;50.50;;;37.03;;
10725;SDS011;5414;59.782;16.378;2023-09-19T06:27:44;48.83;;;36.80;;
10725;SDS011;5414;59.782;16.378;2023-09-19T06:30:10;52.70;;;38.20;;
10725;SDS011;5414;59.782;16.378;2023-09-19T06:32:36;52.50;;;37.90;;
10725;SDS011;5414;59.782;16.378;2023-09-19T06:35:02;55.00;;;39.20;;
10725;SDS011;5414;59.782;16.378;2023-09-19T06:37:32;52.27;;;38.77;;
10725;SDS011;5414;59.782;16.378;2023-09-19T06:39:59;50.40;;;36.90;;
10725;SDS011;5414;59.782;16.378;2023-09-19T06:42:25;49.97;;;37.63;;
10725;SDS011;5414;59.782;16.378;2023-09-19T06:44:53;58.20;;;39.57;;
10725;SDS011;5414;59.782;16.378;2023-09-19T06:47:20;51.27;;;38.83;;
10725;SDS011;5414;59.782;16.378;2023-09-19T06:49:46;58.33;;;39.70;;
10725;SDS011;5414;59.782;16.378;2023-09-19T06:52:13;46.30;;;37.63;;
10725;SDS011;5414;59.782;16.378;2023-09-19T06:54:39;47.63;;;37.70;;
10725;SDS011;5414;59.782;16.378;2023-09-19T06:57:07;46.30;;;35.97;;
10725;SDS011;5414;59.782;16.378;2023-09-19T06:59:34;54.33;;;37.77;;
10725;SDS011;5414;59.782;16.378;2023-09-19T07:02:03;48.00;;;37.47;;
10725;SDS011;5414;59.782;16.378;2023-09-19T07:04:31;45.23;;;35.87;;
10725;SDS011;5414;59.782;16.378;2023-09-19T07:06:57;48.07;;;36.90;;
10725;SDS011;5414;59.782;16.378;2023-09-19T07:09:23;43.60;;;36.87;;
10725;SDS011;5414;59.782;16.378;2023-09-19T07:11:52;45.90;;;36.20;;
10725;SDS011;5414;59.782;16.378;2023-09-19T07:14:18;49.40;;;36.70;;
10725;SDS011;5414;59.782;16.378;2023-09-19T07:16:44;49.60;;;37.17;;
10725;SDS011;5414;59.782;16.378;2023-09-19T07:19:12;45.43;;;36.17;;
10725;SDS011;5414;59.782;16.378;2023-09-19T07:21:40;44.70;;;35.90;;
10725;SDS011;5414;59.782;16.378;2023-09-19T07:24:07;44.10;;;36.20;;
10725;SDS011;5414;59.782;16.378;2023-09-19T07:26:33;42.97;;;35.23;;
10725;SDS011;5414;59.782;16.378;2023-09-19T07:28:59;41.10;;;33.13;;
10725;SDS011;5414;59.782;16.378;2023-09-19T07:31:28;39.00;;;33.93;;
10725;SDS011;5414;59.782;16.378;2023-09-19T07:33:56;37.47;;;32.07;;
10725;SDS011;5414;59.782;16.378;2023-09-19T07:36:21;37.43;;;32.37;;
10725;SDS011;5414;59.782;16.378;2023-09-19T07:38:50;37.57;;;33.60;;
10725;SDS011;5414;59.782;16.378;2023-09-19T07:41:16;36.43;;;31.53;;
10725;SDS011;5414;59.782;16.378;2023-09-19T07:43:42;37.20;;;31.53;;
10725;SDS011;5414;59.782;16.378;2023-09-19T07:46:09;35.57;;;31.73;;
10725;SDS011;5414;59.782;16.378;2023-09-19T07:48:36;35.30;;;31.27;;
10725;SDS011;5414;59.782;16.378;2023-09-19T07:51:06;33.43;;;30.03;;
10725;SDS011;5414;59.782;16.378;2023-09-19T07:53:33;33.00;;;29.43;;
10725;SDS011;5414;59.782;16.378;2023-09-19T07:56:06;35.57;;;29.87;;
10725;SDS011;5414;59.782;16.378;2023-09-19T07:58:32;34.70;;;30.17;;
10725;SDS011;5414;59.782;16.378;2023-09-19T08:01:03;33.50;;;29.97;;
10725;SDS011;5414;59.782;16.378;2023-09-19T08:03:29;32.23;;;29.00;;
10725;SDS011;5414;59.782;16.378;2023-09-19T08:05:56;32.63;;;29.33;;
10725;SDS011;5414;59.782;16.378;2023-09-19T08:08:22;31.83;;;28.60;;
10725;SDS011;5414;59.782;16.378;2023-09-19T08:10:52;31.73;;;28.27;;
10725;SDS011;5414;59.782;16.378;2023-09-19T08:13:18;30.00;;;26.93;;
10725;SDS011;5414;59.782;16.378;2023-09-19T08:15:46;30.17;;;26.70;;
10725;SDS011;5414;59.782;16.378;2023-09-19T08:18:13;30.00;;;26.03;;
10725;SDS011;5414;59.782;16.378;2023-09-19T08:20:39;28.17;;;25.43;;
10725;SDS011;5414;59.782;16.378;2023-09-19T08:23:07;28.97;;;26.07;;
10725;SDS011;5414;59.782;16.378;2023-09-19T08:25:33;28.53;;;25.53;;
10725;SDS011;5414;59.782;16.378;2023-09-19T08:28:00;27.07;;;24.43;;
10725;SDS011;5414;59.782;16.378;2023-09-19T08:30:28;26.40;;;23.70;;
10725;SDS011;5414;59.782;16.378;2023-09-19T08:32:59;25.53;;;22.93;;
10725;SDS011;5414;59.782;16.378;2023-09-19T08:35:25;24.60;;;22.17;;
10725;SDS011;5414;59.782;16.378;2023-09-19T08:37:52;25.17;;;22.77;;
10725;SDS011;5414;59.782;16.378;2023-09-19T08:40:19;25.17;;;22.30;;
10725;SDS011;5414;59.782;16.378;2023-09-19T08:42:53;22.93;;;20.67;;
10725;SDS011;5414;59.782;16.378;2023-09-19T08:45:20;23.10;;;20.80;;
10725;SDS011;5414;59.782;16.378;2023-09-19T08:47:56;22.17;;;20.17;;
10725;SDS011;5414;59.782;16.378;2023-09-19T08:50:27;20.13;;;18.13;;
10725;SDS011;5414;59.782;16.378;2023-09-19T08:52:55;20.03;;;18.17;;
10725;SDS011;5414;59.782;16.378;2023-09-19T08:55:27;19.40;;;17.63;;
10725;SDS011;5414;59.782;16.378;2023-09-19T08:57:57;19.23;;;17.37;;
10725;SDS011;5414;59.782;16.378;2023-09-19T09:00:26;17.10;;;15.50;;
10725;SDS011;5414;59.782;16.378;2023-09-19T09:02:53;17.53;;;15.83;;
10725;SDS011;5414;59.782;16.378;2023-09-19T09:05:20;16.40;;;14.57;;
10725;SDS011;5414;59.782;16.378;2023-09-19T09:07:48;15.30;;;13.77;;
10725;SDS011;5414;59.782;16.378;2023-09-19T09:10:18;15.70;;;13.70;;
10725;SDS011;5414;59.782;16.378;2023-09-19T09:12:51;16.23;;;14.63;;
10725;SDS011;5414;59.782;16.378;2023-09-19T09:15:22;16.17;;;14.73;;
10725;SDS011;5414;59.782;16.378;2023-09-19T09:17:49;14.40;;;12.90;;
10725;SDS011;5414;59.782;16.378;2023-09-19T09:20:18;13.33;;;12.07;;
10725;SDS011;5414;59.782;16.378;2023-09-19T09:22:51;12.63;;;11.53;;
10725;SDS011;5414;59.782;16.378;2023-09-19T09:25:18;11.70;;;10.57;;
10725;SDS011;5414;59.782;16.378;2023-09-19T09:27:46;10.87;;;9.97;;
10725;SDS011;5414;59.782;16.378;2023-09-19T09:30:32;10.70;;;9.67;;
10725;SDS011;5414;59.782;16.378;2023-09-19T09:33:07;11.00;;;9.97;;
10725;SDS011;5414;59.782;16.378;2023-09-19T09:35:37;11.13;;;10.10;;
10725;SDS011;5414;59.782;16.378;2023-09-19T09:38:07;11.73;;;10.73;;
10725;SDS011;5414;59.782;16.378;2023-09-19T09:40:47;10.20;;;9.20;;
10725;SDS011;5414;59.782;16.378;2023-09-19T09:43:31;10.50;;;9.50;;
10725;SDS011;5414;59.782;16.378;2023-09-19T09:46:07;11.80;;;9.13;;
10725;SDS011;5414;59.782;16.378;2023-09-19T09:48:57;10.27;;;9.00;;
10725;SDS011;5414;59.782;16.378;2023-09-19T09:51:42;9.73;;;8.90;;
10725;SDS011;5414;59.782;16.378;2023-09-19T09:54:11;7.33;;;6.73;;
10725;SDS011;5414;59.782;16.378;2023-09-19T10:02:27;7.43;;;6.83;;
10725;SDS011;5414;59.782;16.378;2023-09-19T10:04:57;7.93;;;6.77;;
10725;SDS011;5414;59.782;16.378;2023-09-19T10:07:32;7.13;;;6.50;;
10725;SDS011;5414;59.782;16.378;2023-09-19T10:10:03;6.70;;;6.10;;
10725;SDS011;5414;59.782;16.378;2023-09-19T10:12:38;7.00;;;6.40;;
10725;SDS011;5414;59.782;16.378;2023-09-19T10:15:07;6.80;;;6.20;;
10725;SDS011;5414;59.782;16.378;2023-09-19T10:17:36;8.93;;;6.93;;
10725;SDS011;5414;59.782;16.378;2023-09-19T10:20:02;7.87;;;7.17;;
10725;SDS011;5414;59.782;16.378;2023-09-19T10:22:43;5.47;;;4.77;;
10725;SDS011;5414;59.782;16.378;2023-09-19T10:25:09;4.90;;;4.47;;
10725;SDS011;5414;59.782;16.378;2023-09-19T10:27:35;5.33;;;4.10;;
10725;SDS011;5414;59.782;16.378;2023-09-19T10:30:04;5.07;;;3.70;;
10725;SDS011;5414;59.782;16.378;2023-09-19T10:32:32;4.27;;;3.80;;
10725;SDS011;5414;59.782;16.378;2023-09-19T10:35:00;4.10;;;3.70;;
10725;SDS011;5414;59.782;16.378;2023-09-19T10:37:28;4.80;;;3.57;;
10725;SDS011;5414;59.782;16.378;2023-09-19T10:39:57;4.63;;;3.13;;
10725;SDS011;5414;59.782;16.378;2023-09-19T10:42:24;6.53;;;3.63;;
10725;SDS011;5414;59.782;16.378;2023-09-19T10:44:55;2.60;;;2.33;;
10725;SDS011;5414;59.782;16.378;2023-09-19T10:47:25;4.00;;;2.60;;
10725;SDS011;5414;59.782;16.378;2023-09-19T10:49:53;4.17;;;2.23;;
10725;SDS011;5414;59.782;16.378;2023-09-19T10:52:20;3.03;;;2.10;;
10725;SDS011;5414;59.782;16.378;2023-09-19T10:54:50;2.10;;;1.83;;
10725;SDS011;5414;59.782;16.378;2023-09-19T10:57:19;2.40;;;1.80;;
10725;SDS011;5414;59.782;16.378;2023-09-19T11:00:02;2.47;;;1.33;;
10725;SDS011;5414;59.782;16.378;2023-09-19T11:03:15;2.47;;;1.37;;
10725;SDS011;5414;59.782;16.378;2023-09-19T11:05:32;2.13;;;1.27;;
10725;SDS011;5414;59.782;16.378;2023-09-19T11:07:59;2.80;;;1.17;;
10725;SDS011;5414;59.782;16.378;2023-09-19T11:10:50;2.47;;;1.70;;
10725;SDS011;5414;59.782;16.378;2023-09-19T11:13:26;1.97;;;1.10;;
10725;SDS011;5414;59.782;16.378;2023-09-19T11:26:41;2.50;;;0.83;;
10725;SDS011;5414;59.782;16.378;2023-09-19T11:29:25;2.53;;;1.17;;
10725;SDS011;5414;59.782;16.378;2023-09-19T11:31:52;1.47;;;0.80;;
10725;SDS011;5414;59.782;16.378;2023-09-19T11:37:03;1.47;;;1.03;;
10725;SDS011;5414;59.782;16.378;2023-09-19T11:39:29;1.70;;;1.10;;
10725;SDS011;5414;59.782;16.378;2023-09-19T11:41:56;1.77;;;1.20;;
10725;SDS011;5414;59.782;16.378;2023-09-19T11:49:18;1.23;;;1.10;;
10725;SDS011;5414;59.782;16.378;2023-09-19T11:51:50;3.43;;;1.50;;
10725;SDS011;5414;59.782;16.378;2023-09-19T11:54:16;1.73;;;1.30;;
10725;SDS011;5414;59.782;16.378;2023-09-19T11:56:44;2.20;;;1.30;;
10725;SDS011;5414;59.782;16.378;2023-09-19T11:59:11;2.60;;;1.30;;
10725;SDS011;5414;59.782;16.378;2023-09-19T12:01:50;2.73;;;1.50;;
10725;SDS011;5414;59.782;16.378;2023-09-19T12:04:22;3.17;;;1.20;;
10725;SDS011;5414;59.782;16.378;2023-09-19T12:06:58;2.70;;;1.50;;
10725;SDS011;5414;59.782;16.378;2023-09-19T12:09:25;2.47;;;1.40;;
10725;SDS011;5414;59.782;16.378;2023-09-19T12:11:52;2.80;;;1.60;;
10725;SDS011;5414;59.782;16.378;2023-09-19T12:14:21;2.80;;;1.43;;
10725;SDS011;5414;59.782;16.378;2023-09-19T12:16:54;3.67;;;1.63;;
10725;SDS011;5414;59.782;16.378;2023-09-19T12:19:21;2.13;;;1.40;;
10725;SDS011;5414;59.782;16.378;2023-09-19T12:21:58;3.73;;;1.60;;
10725;SDS011;5414;59.782;16.378;2023-09-19T12:24:27;2.13;;;1.67;;
10725;SDS011;5414;59.782;16.378;2023-09-19T12:27:05;2.10;;;1.50;;
10725;SDS011;5414;59.782;16.378;2023-09-19T12:29:32;3.50;;;1.60;;
10725;SDS011;5414;59.782;16.378;2023-09-19T12:32:08;3.33;;;1.50;;
10725;SDS011;5414;59.782;16.378;2023-09-19T12:34:34;2.87;;;1.50;;
10725;SDS011;5414;59.782;16.378;2023-09-19T12:39:52;3.60;;;1.80;;
10725;SDS011;5414;59.782;16.378;2023-09-19T12:42:23;1.77;;;1.40;;
10725;SDS011;5414;59.782;16.378;2023-09-19T12:44:52;2.63;;;1.50;;
10725;SDS011;5414;59.782;16.378;2023-09-19T12:47:21;4.60;;;1.70;;
10725;SDS011;5414;59.782;16.378;2023-09-19T12:52:44;5.20;;;2.10;;
10725;SDS011;5414;59.782;16.378;2023-09-19T13:00:31;3.73;;;1.70;;
10725;SDS011;5414;59.782;16.378;2023-09-19T13:08:21;3.27;;;1.60;;
10725;SDS011;5414;59.782;16.378;2023-09-19T13:11:01;2.90;;;1.83;;
10725;SDS011;5414;59.782;16.378;2023-09-19T13:13:27;5.30;;;1.80;;
10725;SDS011;5414;59.782;16.378;2023-09-19T13:15:54;3.70;;;1.63;;
10725;SDS011;5414;59.782;16.378;2023-09-19T13:18:22;2.57;;;1.50;;
10725;SDS011;5414;59.782;16.378;2023-09-19T13:21:07;2.97;;;1.70;;
10725;SDS011;5414;59.782;16.378;2023-09-19T13:23:40;3.80;;;1.70;;
10725;SDS011;5414;59.782;16.378;2023-09-19T13:26:07;2.87;;;1.30;;
10725;SDS011;5414;59.782;16.378;2023-09-19T13:28:33;2.57;;;1.30;;
10725;SDS011;5414;59.782;16.378;2023-09-19T13:31:00;1.87;;;1.40;;
10725;SDS011;5414;59.782;16.378;2023-09-19T13:33:26;2.67;;;1.50;;
10725;SDS011;5414;59.782;16.378;2023-09-19T13:35:52;2.07;;;1.33;;
10725;SDS011;5414;59.782;16.378;2023-09-19T13:38:18;2.80;;;1.40;;
10725;SDS011;5414;59.782;16.378;2023-09-19T13:40:47;4.53;;;1.80;;
10725;SDS011;5414;59.782;16.378;2023-09-19T13:43:13;1.97;;;1.50;;
10725;SDS011;5414;59.782;16.378;2023-09-19T13:45:40;4.70;;;1.60;;
10725;SDS011;5414;59.782;16.378;2023-09-19T13:48:09;3.50;;;1.80;;
10725;SDS011;5414;59.782;16.378;2023-09-19T13:50:38;5.13;;;1.87;;
10725;SDS011;5414;59.782;16.378;2023-09-19T13:53:07;3.97;;;1.60;;
10725;SDS011;5414;59.782;16.378;2023-09-19T13:55:34;4.47;;;1.67;;
10725;SDS011;5414;59.782;16.378;2023-09-19T13:58:02;3.90;;;1.47;;
10725;SDS011;5414;59.782;16.378;2023-09-19T14:00:31;4.40;;;1.77;;
10725;SDS011;5414;59.782;16.378;2023-09-19T14:03:01;2.77;;;1.60;;
10725;SDS011;5414;59.782;16.378;2023-09-19T14:05:27;4.60;;;1.93;;
10725;SDS011;5414;59.782;16.378;2023-09-19T14:07:54;5.00;;;1.60;;
10725;SDS011;5414;59.782;16.378;2023-09-19T14:10:21;4.73;;;1.50;;
10725;SDS011;5414;59.782;16.378;2023-09-19T14:12:47;4.60;;;2.07;;
10725;SDS011;5414;59.782;16.378;2023-09-19T14:15:13;4.37;;;1.77;;
10725;SDS011;5414;59.782;16.378;2023-09-19T14:17:39;4.00;;;2.03;;
10725;SDS011;5414;59.782;16.378;2023-09-19T14:20:10;4.37;;;1.90;;
10725;SDS011;5414;59.782;16.378;2023-09-19T14:22:37;3.37;;;2.07;;
10725;SDS011;5414;59.782;16.378;2023-09-19T14:25:03;3.17;;;2.00;;
10725;SDS011;5414;59.782;16.378;2023-09-19T14:27:30;4.93;;;1.97;;
10725;SDS011;5414;59.782;16.378;2023-09-19T14:29:56;4.63;;;1.83;;
10725;SDS011;5414;59.782;16.378;2023-09-19T14:32:22;3.20;;;1.70;;
10725;SDS011;5414;59.782;16.378;2023-09-19T14:34:48;2.80;;;1.60;;
10725;SDS011;5414;59.782;16.378;2023-09-19T14:37:15;4.10;;;1.93;;
10725;SDS011;5414;59.782;16.378;2023-09-19T14:39:46;3.97;;;1.87;;
10725;SDS011;5414;59.782;16.378;2023-09-19T14:42:12;4.93;;;1.60;;
10725;SDS011;5414;59.782;16.378;2023-09-19T14:44:42;3.53;;;2.00;;
10725;SDS011;5414;59.782;16.378;2023-09-19T14:47:09;5.73;;;1.87;;
10725;SDS011;5414;59.782;16.378;2023-09-19T14:49:38;4.53;;;1.73;;
10725;SDS011;5414;59.782;16.378;2023-09-19T14:52:07;4.30;;;1.60;;
10725;SDS011;5414;59.782;16.378;2023-09-19T14:54:33;5.43;;;1.50;;
10725;SDS011;5414;59.782;16.378;2023-09-19T14:57:00;2.63;;;1.37;;
10725;SDS011;5414;59.782;16.378;2023-09-19T14:59:33;2.17;;;1.40;;
10725;SDS011;5414;59.782;16.378;2023-09-19T15:02:06;3.27;;;1.40;;
10725;SDS011;5414;59.782;16.378;2023-09-19T15:04:32;4.50;;;1.37;;
10725;SDS011;5414;59.782;16.378;2023-09-19T15:06:58;2.40;;;1.13;;
10725;SDS011;5414;59.782;16.378;2023-09-19T15:09:25;2.73;;;1.10;;
10725;SDS011;5414;59.782;16.378;2023-09-19T15:11:54;2.27;;;1.00;;
10725;SDS011;5414;59.782;16.378;2023-09-19T15:14:24;2.13;;;1.00;;
10725;SDS011;5414;59.782;16.378;2023-09-19T15:16:50;4.37;;;1.13;;
10725;SDS011;5414;59.782;16.378;2023-09-19T15:19:16;2.63;;;1.10;;
10725;SDS011;5414;59.782;16.378;2023-09-19T15:21:42;3.23;;;1.10;;
10725;SDS011;5414;59.782;16.378;2023-09-19T15:24:09;2.77;;;1.17;;
10725;SDS011;5414;59.782;16.378;2023-09-19T15:26:38;2.47;;;1.00;;
10725;SDS011;5414;59.782;16.378;2023-09-19T15:29:07;2.80;;;0.97;;
10725;SDS011;5414;59.782;16.378;2023-09-19T15:31:34;1.90;;;1.07;;
10725;SDS011;5414;59.782;16.378;2023-09-19T15:34:03;2.00;;;1.00;;
10725;SDS011;5414;59.782;16.378;2023-09-19T15:36:30;2.23;;;1.03;;
10725;SDS011;5414;59.782;16.378;2023-09-19T15:41:25;3.53;;;1.20;;